Abbott, NM

8:04 AM MST on November 23, 2014 (GMT -0700)
Raton Municipal-Crews | Change Station
CLOSE
Current Station
Airport
Location: Raton,
Elevation: 6352 ft
Nearby Weather Stations
Active Advisory: Wind Advisory

Elev 6352 ft 36.74 °N, 104.50 °W | Updated 11 minutes ago

Mostly Cloudy
Mostly Cloudy
38 °F
Feels Like 30 °F
N
13
Wind Variable Wind from NE

Today
High -- | Low -- °F
--% Chance of Precip.
Yesterday
High -- | Low -- °F
Precip. -- in
6:42 AM 4:44 PM
New Moon, 1% visible
Pressure 29.59 in
Visibility 10.0 miles
Clouds Scattered Clouds 8000 ft
Mostly Cloudy 11000 ft
Windchill 30 °F
Dew Point 27 °F
Humidity 65%
Rainfall 0.00 in
Snow Depth Not available.
UV 0 out of 12
Pollen .10 out of 12
Air Quality Not available.
Flu Activity Not available.
METAR KRTN 231453Z AUTO 04011KT 10SM SCT080 BKN110 03/M03 A2969 RMK AO2 PK WND 03029/1355 SLP019 T00331028 51027

More Conditions Fewer Conditions

Pressure 29.59 in
Visibility 10.0 miles
Clouds Scattered Clouds 8000 ft
Mostly Cloudy 11000 ft
Windchill 30 °F
Dew Point 27 °F
Humidity 65%
Rainfall 0.00 in
Snow Depth Not available.
UV 0 out of 12
Pollen .10 out of 12
Air Quality Not available.
Flu Activity Not available.
METAR KRTN 231453Z AUTO 04011KT 10SM SCT080 BKN110 03/M03 A2969 RMK AO2 PK WND 03029/1355 SLP019 T00331028 51027

More Conditions Fewer Conditions

Nowcast | as of 7:20 am MST on November 23, 2014

A strong cold front will plow through the northeast this morning. North to northeast winds behind the front will gust to near 50 mph. There may be some blowing dust and brief visibilities down to 3 miles. In addition...a few rain and snow showers will fall through the morning but should be light.

×

10-Day Weather Forecast

Almanac

Astronomy

Nov. 23, 2014 Rise Set
Actual Time
Civil Twilight
Nautical Twilight
Astronomical Twilight
Moon
Length of Visible Light
Length of Day
Tomorrow will be .
, % of the Moon is Illuminated

Today's Extremes

State Highs State Lows

Community

WunderPhotos

Upload Photos

1,773,085 photos uploaded!

WunderBlogs® & News

Nearby

Air Quality

  Air Quality AQ Index Pollutant
Not available.

Snow Depth

Station Depth Elevation

Earthquake Activity

City Distance Mag. Time & Date
Minimum magnitude displayed is 2.5.

Coastal Water Temperatures

Place Temperature

Nearby Weather Stations